createdAt,value
2019-05-20T00:00:16.196Z,15.20
2019-05-20T00:02:45.109Z,15.20
2019-05-20T00:05:14.094Z,15.20
2019-05-20T00:07:42.838Z,15.20
2019-05-20T00:10:12.265Z,15.30
2019-05-20T00:12:41.138Z,15.30
2019-05-20T00:15:10.153Z,15.40
2019-05-20T00:17:39.024Z,15.40
2019-05-20T00:20:08.368Z,15.40
2019-05-20T00:22:37.480Z,15.30
2019-05-20T00:25:07.619Z,15.30
2019-05-20T00:27:36.599Z,15.40
2019-05-20T00:30:05.808Z,15.30
2019-05-20T00:32:41.192Z,15.30
2019-05-20T00:35:05.408Z,15.30
2019-05-20T00:37:34.281Z,15.20
2019-05-20T00:40:03.712Z,15.20
2019-05-20T00:42:33.067Z,15.20
2019-05-20T00:45:01.935Z,15.20
2019-05-20T00:47:30.731Z,15.20
2019-05-20T00:49:59.658Z,15.20
2019-05-20T00:52:28.485Z,15.10
2019-05-20T00:54:57.453Z,15.10
2019-05-20T00:57:26.306Z,15.10
2019-05-20T00:59:55.535Z,15.10
2019-05-20T01:02:24.802Z,15.00
2019-05-20T01:04:53.913Z,15.00
2019-05-20T01:07:22.782Z,15.10
2019-05-20T01:09:51.698Z,15.10
2019-05-20T01:12:20.752Z,15.10
2019-05-20T01:14:49.759Z,15.00
2019-05-20T01:17:18.766Z,15.00
2019-05-20T01:19:47.587Z,15.00
2019-05-20T01:22:16.386Z,14.90
2019-05-20T01:24:45.520Z,14.90
2019-05-20T01:27:14.817Z,14.90
2019-05-20T01:29:43.690Z,15.00
2019-05-20T01:32:12.614Z,15.00
2019-05-20T01:34:41.439Z,15.00
2019-05-20T01:37:10.392Z,14.90
2019-05-20T01:39:39.312Z,14.80
2019-05-20T01:42:08.316Z,14.80
2019-05-20T01:44:37.308Z,14.80
2019-05-20T01:47:06.368Z,14.70
2019-05-20T01:49:35.204Z,14.70
2019-05-20T01:52:04.049Z,14.80
2019-05-20T01:54:32.895Z,14.80
2019-05-20T01:57:01.686Z,14.80
2019-05-20T01:59:30.612Z,14.70
2019-05-20T02:01:59.471Z,14.70
2019-05-20T02:04:28.319Z,14.70
2019-05-20T02:06:57.228Z,14.60
2019-05-20T02:09:26.184Z,14.60
2019-05-20T02:11:55.027Z,14.60
2019-05-20T02:14:27.048Z,14.50
2019-05-20T02:16:56.004Z,14.50
2019-05-20T02:19:24.790Z,14.50
2019-05-20T02:21:53.746Z,14.50
2019-05-20T02:24:22.912Z,14.40
2019-05-20T02:26:52.083Z,14.30
2019-05-20T02:29:21.048Z,14.30
2019-05-20T02:31:50.001Z,14.20
2019-05-20T02:34:19.177Z,14.20
2019-05-20T02:36:48.440Z,14.20
2019-05-20T02:39:17.523Z,14.10
2019-05-20T02:41:46.693Z,14.10
2019-05-20T02:44:16.693Z,14.00
2019-05-20T02:46:45.626Z,14.00
2019-05-20T02:49:14.691Z,13.90
2019-05-20T02:51:43.621Z,13.90
2019-05-20T02:54:12.513Z,13.90
2019-05-20T02:56:41.502Z,13.90
2019-05-20T02:59:10.683Z,13.90
2019-05-20T03:01:39.551Z,13.90
2019-05-20T03:04:12.253Z,13.90
2019-05-20T03:06:39.250Z,13.90
2019-05-20T03:09:11.949Z,13.80
2019-05-20T03:11:39.135Z,13.80
2019-05-20T03:14:08.166Z,13.80
2019-05-20T03:16:37.126Z,13.80
2019-05-20T03:19:06.756Z,13.90
2019-05-20T03:21:35.645Z,13.90
2019-05-20T03:24:04.608Z,13.90
2019-05-20T03:26:33.584Z,13.90
2019-05-20T03:29:02.396Z,13.90
2019-05-20T03:31:31.256Z,13.90
2019-05-20T03:34:00.143Z,13.90
2019-05-20T03:36:29.003Z,13.80
2019-05-20T03:38:58.098Z,13.90
2019-05-20T03:41:26.963Z,13.80
2019-05-20T03:43:55.839Z,13.80
2019-05-20T03:46:24.694Z,13.80
2019-05-20T03:48:53.569Z,13.70
2019-05-20T03:51:22.693Z,13.70
2019-05-20T03:53:51.707Z,13.70
2019-05-20T03:56:20.630Z,13.70
2019-05-20T03:58:49.493Z,13.70
2019-05-20T04:01:18.633Z,13.80
2019-05-20T04:03:47.463Z,13.80
2019-05-20T04:06:16.257Z,13.90
2019-05-20T04:08:45.108Z,14.00
2019-05-20T04:11:13.917Z,14.00
2019-05-20T04:13:42.806Z,14.10
2019-05-20T04:16:11.687Z,14.20
2019-05-20T04:18:40.479Z,14.20
2019-05-20T04:21:09.361Z,14.30
2019-05-20T04:23:38.268Z,14.40
2019-05-20T04:26:07.346Z,14.60
2019-05-20T04:28:36.191Z,14.70
2019-05-20T04:31:05.162Z,14.80
2019-05-20T04:33:34.029Z,14.90
2019-05-20T04:36:02.836Z,15.10
2019-05-20T04:38:31.666Z,15.10
2019-05-20T04:41:00.509Z,15.10
2019-05-20T04:43:29.374Z,15.10
2019-05-20T04:45:58.224Z,15.10
2019-05-20T04:48:27.230Z,15.20
2019-05-20T04:50:56.024Z,15.20
2019-05-20T04:53:24.776Z,15.30
2019-05-20T04:55:53.554Z,15.30
2019-05-20T04:58:22.395Z,15.50
2019-05-20T05:00:53.714Z,15.60
2019-05-20T05:03:22.802Z,15.60
2019-05-20T05:05:52.628Z,15.70
2019-05-20T05:08:21.685Z,15.80
2019-05-20T05:10:50.800Z,15.90
2019-05-20T05:13:19.934Z,16.00
2019-05-20T05:15:48.831Z,16.10
2019-05-20T05:18:17.676Z,16.10
2019-05-20T05:20:46.520Z,16.30
2019-05-20T05:23:15.462Z,16.30
2019-05-20T05:25:44.421Z,16.30
2019-05-20T05:28:13.428Z,16.30
2019-05-20T05:30:43.777Z,16.40
2019-05-20T05:33:12.629Z,16.50
2019-05-20T05:35:52.884Z,16.50
2019-05-20T05:38:12.139Z,16.50
2019-05-20T05:40:41.197Z,16.50
2019-05-20T05:43:10.278Z,16.60
2019-05-20T05:45:39.323Z,16.60
2019-05-20T05:48:08.412Z,16.70
2019-05-20T05:50:37.308Z,16.80
2019-05-20T05:53:06.017Z,16.90
2019-05-20T05:55:34.845Z,17.00
2019-05-20T05:58:03.666Z,17.30
2019-05-20T06:00:32.516Z,17.60
2019-05-20T06:03:01.411Z,18.00
2019-05-20T06:05:31.744Z,18.30
2019-05-20T06:08:00.779Z,18.60
2019-05-20T06:10:29.880Z,18.70
2019-05-20T06:12:58.669Z,18.70
2019-05-20T06:15:27.840Z,18.60
2019-05-20T06:17:56.878Z,18.60
2019-05-20T06:20:25.728Z,18.60
2019-05-20T06:22:54.496Z,18.60
2019-05-20T06:25:23.475Z,18.70
2019-05-20T06:27:52.550Z,18.70
2019-05-20T06:30:25.467Z,18.90
2019-05-20T06:32:54.377Z,18.90
2019-05-20T06:35:23.220Z,19.10
2019-05-20T06:37:54.483Z,19.10
2019-05-20T06:40:23.324Z,19.20
2019-05-20T06:42:52.455Z,19.40
2019-05-20T06:45:21.267Z,19.60
2019-05-20T06:47:50.057Z,19.70
2019-05-20T06:50:18.915Z,19.80
2019-05-20T06:52:47.670Z,19.80
2019-05-20T06:55:16.841Z,19.70
2019-05-20T06:57:45.638Z,19.80
2019-05-20T07:00:18.481Z,19.90
2019-05-20T07:02:47.536Z,19.90
2019-05-20T07:05:16.702Z,19.80
2019-05-20T07:07:45.723Z,20.20
2019-05-20T07:10:14.625Z,20.50
2019-05-20T07:12:44.104Z,20.70
2019-05-20T07:15:13.040Z,20.90
2019-05-20T07:17:41.876Z,21.40
2019-05-20T07:20:11.536Z,22.20
2019-05-20T07:22:55.331Z,22.70
2019-05-20T07:25:11.103Z,23.00
2019-05-20T07:27:40.059Z,23.00
2019-05-20T07:30:09.088Z,23.80
2019-05-20T07:32:37.979Z,24.10
2019-05-20T07:35:07.029Z,24.10
2019-05-20T07:37:36.080Z,23.70
2019-05-20T07:40:05.393Z,23.40
2019-05-20T07:42:34.311Z,23.30
2019-05-20T07:45:03.099Z,23.50
2019-05-20T07:47:32.208Z,23.60
2019-05-20T07:50:01.329Z,23.70
2019-05-20T07:52:30.807Z,24.00
2019-05-20T07:55:00.391Z,24.80
2019-05-20T07:57:32.706Z,25.20
2019-05-20T08:00:01.724Z,25.30
2019-05-20T08:02:30.797Z,25.00
2019-05-20T08:04:59.867Z,24.30
2019-05-20T08:07:49.918Z,23.70
2019-05-20T08:09:59.316Z,23.40
2019-05-20T08:12:28.086Z,23.10
2019-05-20T08:14:56.887Z,22.70
2019-05-20T08:17:25.936Z,22.40
2019-05-20T08:19:54.717Z,22.20
2019-05-20T08:22:23.841Z,22.10
2019-05-20T08:24:52.991Z,22.00
2019-05-20T08:27:21.884Z,21.80
2019-05-20T08:29:50.776Z,21.50
2019-05-20T08:32:19.853Z,21.40
2019-05-20T08:34:48.636Z,21.60
2019-05-20T08:37:17.496Z,21.50
2019-05-20T08:39:46.555Z,21.30
2019-05-20T08:42:15.368Z,21.30
2019-05-20T08:44:44.344Z,21.40
2019-05-20T08:47:13.175Z,21.50
2019-05-20T08:49:42.825Z,21.50
2019-05-20T08:52:12.179Z,21.50
2019-05-20T08:54:41.030Z,21.30
2019-05-20T08:57:09.748Z,21.10
2019-05-20T08:59:38.570Z,21.10
2019-05-20T09:02:07.689Z,21.10
2019-05-20T09:04:36.425Z,21.00
2019-05-20T09:07:05.256Z,21.00
2019-05-20T09:09:34.182Z,21.00
2019-05-20T09:12:03.132Z,20.90
2019-05-20T09:14:31.924Z,20.90
2019-05-20T09:17:00.738Z,20.90
2019-05-20T09:19:48.765Z,20.90
2019-05-20T09:22:17.555Z,20.90
2019-05-20T09:24:46.397Z,21.00
2019-05-20T09:27:18.434Z,21.10
2019-05-20T09:29:45.680Z,21.00
2019-05-20T09:32:14.529Z,20.90
2019-05-20T09:34:43.460Z,21.00
2019-05-20T09:37:12.215Z,21.00
2019-05-20T09:39:41.224Z,21.00
2019-05-20T09:42:10.109Z,21.00
2019-05-20T09:44:39.168Z,20.80
2019-05-20T09:47:08.055Z,20.70
2019-05-20T09:49:36.932Z,20.60
2019-05-20T09:52:05.855Z,20.60
2019-05-20T09:54:34.849Z,20.60
2019-05-20T09:57:03.621Z,20.40
2019-05-20T09:59:42.857Z,20.30
2019-05-20T10:02:02.842Z,20.30
2019-05-20T10:04:31.704Z,20.20
2019-05-20T10:07:00.580Z,20.00
2019-05-20T10:09:29.338Z,20.00
2019-05-20T10:11:58.170Z,19.90
2019-05-20T10:14:27.039Z,20.00
2019-05-20T10:16:55.836Z,20.00
2019-05-20T10:19:25.124Z,20.00
2019-05-20T10:21:53.912Z,20.00
2019-05-20T10:24:22.985Z,20.10
2019-05-20T10:26:51.750Z,20.00
2019-05-20T10:29:20.784Z,20.10
2019-05-20T10:31:49.760Z,20.10
2019-05-20T10:34:18.839Z,20.00
2019-05-20T10:36:47.827Z,20.10
2019-05-20T10:39:16.940Z,20.00
2019-05-20T10:41:46.018Z,20.00
2019-05-20T10:44:14.810Z,19.90
2019-05-20T10:46:43.646Z,19.90
2019-05-20T10:49:12.457Z,20.00
2019-05-20T10:51:41.232Z,19.80
2019-05-20T10:54:10.043Z,19.90
2019-05-20T10:56:38.795Z,19.90
2019-05-20T10:59:11.746Z,19.70
2019-05-20T11:01:38.029Z,19.70
2019-05-20T11:04:06.838Z,19.60
2019-05-20T11:06:35.906Z,19.60
2019-05-20T11:09:14.230Z,19.50
2019-05-20T11:11:39.363Z,19.50
2019-05-20T11:14:07.008Z,19.50
2019-05-20T11:16:35.744Z,19.50
2019-05-20T11:19:04.689Z,19.40
2019-05-20T11:21:33.505Z,19.40
2019-05-20T11:24:02.335Z,19.20
2019-05-20T11:26:31.133Z,19.00
2019-05-20T11:28:59.857Z,18.90
2019-05-20T11:31:28.603Z,18.80
2019-05-20T11:33:57.719Z,18.80
2019-05-20T11:36:26.605Z,18.80
2019-05-20T11:38:55.422Z,18.80
2019-05-20T11:41:51.073Z,18.80
2019-05-20T11:43:54.771Z,18.80
2019-05-20T11:46:23.842Z,18.80
2019-05-20T11:48:52.632Z,18.80
2019-05-20T11:51:21.409Z,18.80
2019-05-20T11:53:50.200Z,18.60
2019-05-20T11:56:18.959Z,18.90
2019-05-20T11:58:47.726Z,19.00
2019-05-20T12:01:16.524Z,19.10
2019-05-20T12:03:45.279Z,19.30
2019-05-20T12:06:14.122Z,19.40
2019-05-20T12:08:42.960Z,19.50
2019-05-20T12:11:11.980Z,19.50
2019-05-20T12:13:40.777Z,19.50
2019-05-20T12:16:09.528Z,19.50
2019-05-20T12:18:38.271Z,19.60
2019-05-20T12:21:07.017Z,19.50
2019-05-20T12:23:35.758Z,19.60
2019-05-20T12:26:04.937Z,19.50
2019-05-20T12:28:33.984Z,19.30
2019-05-20T12:31:03.024Z,19.30
2019-05-20T12:33:31.810Z,19.30
2019-05-20T12:36:00.560Z,19.20
2019-05-20T12:38:32.245Z,19.20
2019-05-20T12:41:01.299Z,19.20
2019-05-20T12:43:30.059Z,19.20
2019-05-20T12:45:58.872Z,19.20
2019-05-20T12:48:27.594Z,19.20
2019-05-20T12:50:56.368Z,19.30
2019-05-20T12:53:25.199Z,19.30
2019-05-20T12:55:54.041Z,19.40
2019-05-20T12:58:22.846Z,19.40
2019-05-20T13:00:51.595Z,19.40
2019-05-20T13:03:20.498Z,19.30
2019-05-20T13:05:49.520Z,19.20
2019-05-20T13:08:18.415Z,19.20
2019-05-20T13:10:47.148Z,19.10
2019-05-20T13:13:16.158Z,19.00
2019-05-20T13:15:44.983Z,18.90
2019-05-20T13:18:13.723Z,18.90
2019-05-20T13:20:42.618Z,19.00
2019-05-20T13:23:14.014Z,19.00
2019-05-20T13:25:42.297Z,18.90
2019-05-20T13:28:11.094Z,18.80
2019-05-20T13:30:40.068Z,18.70
2019-05-20T13:33:08.891Z,18.50
2019-05-20T13:35:37.711Z,18.40
2019-05-20T13:38:06.570Z,18.40
2019-05-20T13:40:45.663Z,18.40
2019-05-20T13:43:06.170Z,18.60
2019-05-20T13:45:34.949Z,18.50
2019-05-20T13:48:03.999Z,18.60
2019-05-20T13:50:32.760Z,18.60
2019-05-20T13:53:01.593Z,18.60
2019-05-20T13:55:30.660Z,18.70
2019-05-20T13:57:59.567Z,18.70
2019-05-20T14:00:28.317Z,18.80
2019-05-20T14:02:57.662Z,18.80
2019-05-20T14:05:26.536Z,18.80
2019-05-20T14:07:55.377Z,18.70
2019-05-20T14:10:24.205Z,18.70
2019-05-20T14:12:53.325Z,18.60
2019-05-20T14:15:22.176Z,18.60
2019-05-20T14:17:51.022Z,18.40
2019-05-20T14:20:20.236Z,18.30
2019-05-20T14:22:49.046Z,18.20
2019-05-20T14:25:18.005Z,18.10
2019-05-20T14:27:46.735Z,18.00
2019-05-20T14:30:16.032Z,17.30
2019-05-20T14:32:44.996Z,16.80
2019-05-20T14:35:13.920Z,16.20
2019-05-20T14:37:42.727Z,16.00
2019-05-20T14:40:12.450Z,15.70
2019-05-20T14:42:41.501Z,15.60
2019-05-20T14:45:10.764Z,15.50
2019-05-20T14:47:39.515Z,15.40
2019-05-20T14:50:08.717Z,15.40
2019-05-20T14:52:37.628Z,15.40
2019-05-20T14:55:06.672Z,15.20
2019-05-20T14:57:35.584Z,15.20
2019-05-20T15:00:06.167Z,15.20
2019-05-20T15:02:34.907Z,15.00
2019-05-20T15:05:04.132Z,15.10
2019-05-20T15:07:32.947Z,15.20
2019-05-20T15:10:01.764Z,15.20
2019-05-20T15:12:30.642Z,15.10
2019-05-20T15:14:59.463Z,15.20
2019-05-20T15:17:28.294Z,15.20
2019-05-20T15:19:57.152Z,15.20
2019-05-20T15:22:25.908Z,15.30
2019-05-20T15:24:54.704Z,15.30
2019-05-20T15:27:23.523Z,15.30
2019-05-20T15:29:52.388Z,15.20
2019-05-20T15:32:21.447Z,15.20
2019-05-20T15:34:50.276Z,15.20
2019-05-20T15:37:19.030Z,15.30
2019-05-20T15:39:47.825Z,15.20
2019-05-20T15:42:16.599Z,15.30
2019-05-20T15:44:45.896Z,15.20
2019-05-20T15:47:18.601Z,15.20
2019-05-20T15:49:45.255Z,15.30
2019-05-20T15:52:14.268Z,15.30
2019-05-20T15:54:43.488Z,15.30
2019-05-20T15:57:12.317Z,15.30
2019-05-20T15:59:46.035Z,15.40
2019-05-20T16:02:11.612Z,15.50
2019-05-20T16:04:40.370Z,15.50
2019-05-20T16:07:09.456Z,15.60
2019-05-20T16:09:38.275Z,15.60
2019-05-20T16:12:07.039Z,15.60
2019-05-20T16:14:36.184Z,15.70
2019-05-20T16:17:05.027Z,15.80
2019-05-20T16:19:34.077Z,15.90
2019-05-20T16:22:03.232Z,15.90
2019-05-20T16:24:32.363Z,15.80
2019-05-20T16:27:01.180Z,15.90
2019-05-20T16:29:29.992Z,15.90
2019-05-20T16:31:59.104Z,16.00
2019-05-20T16:34:28.207Z,16.00
2019-05-20T16:36:57.167Z,16.00
2019-05-20T16:39:25.976Z,16.00
2019-05-20T16:41:54.805Z,16.10
2019-05-20T16:44:23.556Z,16.00
2019-05-20T16:46:52.326Z,16.00
2019-05-20T16:49:21.151Z,16.00
2019-05-20T16:51:50.182Z,16.00
2019-05-20T16:54:19.013Z,15.90
2019-05-20T16:56:47.787Z,15.90
2019-05-20T16:59:16.760Z,16.00
2019-05-20T17:01:46.764Z,15.90
2019-05-20T17:04:15.549Z,15.90
2019-05-20T17:06:44.446Z,16.00
2019-05-20T17:09:15.629Z,16.00
2019-05-20T17:11:44.407Z,16.00
2019-05-20T17:14:13.222Z,16.10
2019-05-20T17:16:41.949Z,16.20
2019-05-20T17:19:10.684Z,16.20
2019-05-20T17:21:39.729Z,16.20
2019-05-20T17:24:09.050Z,16.30
2019-05-20T17:26:37.763Z,16.30
2019-05-20T17:29:06.806Z,16.30
2019-05-20T17:31:36.070Z,16.40
2019-05-20T17:34:05.025Z,16.40
2019-05-20T17:36:33.816Z,16.30
2019-05-20T17:39:02.815Z,16.40
2019-05-20T17:41:31.927Z,16.30
2019-05-20T17:44:01.172Z,16.30
2019-05-20T17:46:30.325Z,16.30
2019-05-20T17:48:59.075Z,16.40
2019-05-20T17:51:28.126Z,16.40
2019-05-20T17:53:57.151Z,16.40
2019-05-20T17:56:26.241Z,16.50
2019-05-20T17:58:55.400Z,16.50
2019-05-20T18:01:24.218Z,16.50
2019-05-20T18:03:53.032Z,16.60
2019-05-20T18:06:21.812Z,16.50
2019-05-20T18:08:52.912Z,16.60
2019-05-20T18:11:21.643Z,16.50
2019-05-20T18:13:50.498Z,16.40
2019-05-20T18:16:19.480Z,16.40
2019-05-20T18:18:48.308Z,16.40
2019-05-20T18:21:17.120Z,16.30
2019-05-20T18:23:45.986Z,16.30
2019-05-20T18:26:14.724Z,16.30
2019-05-20T18:28:43.956Z,16.30
2019-05-20T18:31:12.742Z,16.30
2019-05-20T18:33:41.545Z,16.20
2019-05-20T18:36:10.427Z,16.10
2019-05-20T18:38:39.215Z,16.00
2019-05-20T18:41:08.183Z,15.90
2019-05-20T18:43:36.950Z,15.80
2019-05-20T18:46:06.171Z,15.70
2019-05-20T18:48:35.014Z,15.70
2019-05-20T18:51:03.912Z,15.60
2019-05-20T18:53:33.243Z,15.50
2019-05-20T18:56:02.141Z,15.40
2019-05-20T18:58:32.228Z,15.30
2019-05-20T19:01:01.314Z,15.20
2019-05-20T19:03:30.354Z,15.10
2019-05-20T19:05:59.281Z,15.00
2019-05-20T19:08:28.059Z,15.00
2019-05-20T19:10:56.808Z,14.80
2019-05-20T19:13:25.799Z,14.70
2019-05-20T19:15:54.860Z,14.60
2019-05-20T19:18:24.176Z,14.60
2019-05-20T19:20:53.031Z,14.50
2019-05-20T19:23:21.809Z,14.50
2019-05-20T19:25:51.147Z,14.50
2019-05-20T19:28:19.975Z,14.40
2019-05-20T19:30:48.738Z,14.40
2019-05-20T19:33:17.588Z,14.30
2019-05-20T19:35:46.341Z,14.20
2019-05-20T19:38:15.351Z,14.20
2019-05-20T19:40:44.185Z,14.20
2019-05-20T19:43:12.934Z,14.20
2019-05-20T19:45:41.951Z,14.20
2019-05-20T19:48:10.857Z,14.10
2019-05-20T19:50:39.732Z,14.10
2019-05-20T19:53:08.569Z,14.00
2019-05-20T19:55:37.496Z,14.00
2019-05-20T19:58:06.762Z,13.90
2019-05-20T20:00:35.548Z,13.90
2019-05-20T20:03:04.409Z,13.80
2019-05-20T20:05:33.265Z,13.80
2019-05-20T20:08:02.589Z,13.80
2019-05-20T20:10:31.672Z,13.60
2019-05-20T20:13:00.555Z,13.60
2019-05-20T20:15:29.483Z,13.60
2019-05-20T20:17:58.288Z,13.50
2019-05-20T20:20:27.509Z,13.50
2019-05-20T20:22:56.402Z,13.40
2019-05-20T20:25:25.442Z,13.40
2019-05-20T20:27:54.453Z,13.30
2019-05-20T20:30:23.968Z,13.40
2019-05-20T20:32:52.933Z,13.30
2019-05-20T20:35:36.989Z,13.20
2019-05-20T20:37:52.952Z,13.10
2019-05-20T20:40:21.883Z,13.10
2019-05-20T20:42:50.747Z,13.00
2019-05-20T20:45:19.665Z,13.00
2019-05-20T20:47:48.543Z,13.00
2019-05-20T20:50:17.553Z,12.90
2019-05-20T20:52:46.816Z,12.90
2019-05-20T20:55:16.028Z,12.90
2019-05-20T20:57:45.744Z,12.90
2019-05-20T21:00:14.915Z,12.90
2019-05-20T21:02:52.707Z,12.90
2019-05-20T21:05:14.495Z,12.80
2019-05-20T21:07:43.560Z,12.80
2019-05-20T21:10:12.637Z,12.70
2019-05-20T21:12:41.598Z,12.70
2019-05-20T21:15:10.937Z,12.60
2019-05-20T21:17:39.773Z,12.60
2019-05-20T21:20:08.690Z,12.50
2019-05-20T21:22:37.618Z,12.50
2019-05-20T21:25:06.589Z,12.50
2019-05-20T21:27:35.352Z,12.40
2019-05-20T21:30:04.568Z,12.40
2019-05-20T21:32:33.906Z,12.30
2019-05-20T21:35:02.696Z,12.30
2019-05-20T21:37:31.524Z,12.30
2019-05-20T21:40:00.463Z,12.30
2019-05-20T21:42:29.335Z,12.20
2019-05-20T21:44:58.196Z,12.20
2019-05-20T21:47:27.248Z,12.20
2019-05-20T21:49:56.341Z,12.20
2019-05-20T21:52:25.255Z,12.10
2019-05-20T21:54:54.624Z,12.10
2019-05-20T21:57:23.612Z,12.10
2019-05-20T21:59:52.605Z,12.10
2019-05-20T22:02:21.775Z,12.10
2019-05-20T22:04:50.817Z,12.10
2019-05-20T22:07:19.583Z,12.00
2019-05-20T22:09:48.416Z,12.00
2019-05-20T22:12:17.242Z,12.00
2019-05-20T22:14:46.000Z,12.00
2019-05-20T22:17:14.762Z,11.90
2019-05-20T22:19:44.173Z,11.90
2019-05-20T22:22:27.943Z,11.90
2019-05-20T22:24:57.027Z,11.90
2019-05-20T22:27:26.381Z,11.80
2019-05-20T22:29:55.203Z,11.80
2019-05-20T22:32:23.995Z,11.70
2019-05-20T22:34:53.988Z,11.70
2019-05-20T22:37:22.871Z,11.70
2019-05-20T22:39:51.931Z,11.60
2019-05-20T22:42:21.056Z,11.60
2019-05-20T22:44:49.979Z,11.60
2019-05-20T22:47:18.715Z,11.60
2019-05-20T22:49:47.500Z,11.60
2019-05-20T22:52:16.360Z,11.50
2019-05-20T22:54:45.359Z,11.50
2019-05-20T22:57:14.126Z,11.50
2019-05-20T22:59:43.103Z,11.50
2019-05-20T23:02:11.977Z,11.50
2019-05-20T23:04:40.798Z,11.50
2019-05-20T23:07:09.588Z,11.50
2019-05-20T23:09:38.360Z,11.50
2019-05-20T23:12:07.147Z,11.50
2019-05-20T23:14:35.995Z,11.50
2019-05-20T23:17:05.471Z,11.50
2019-05-20T23:19:34.211Z,11.50
2019-05-20T23:22:03.036Z,11.50
2019-05-20T23:24:31.877Z,11.50
2019-05-20T23:27:00.700Z,11.50
2019-05-20T23:29:29.532Z,11.60
2019-05-20T23:31:58.269Z,11.70
2019-05-20T23:34:27.034Z,11.80
2019-05-20T23:36:55.782Z,11.80
2019-05-20T23:39:24.849Z,11.90
2019-05-20T23:41:53.683Z,12.00
2019-05-20T23:44:22.655Z,12.10
2019-05-20T23:46:51.504Z,12.10
2019-05-20T23:49:20.288Z,12.00
2019-05-20T23:51:49.127Z,12.00
2019-05-20T23:54:18.117Z,12.20
2019-05-20T23:56:47.465Z,12.30
2019-05-20T23:59:16.307Z,12.30
